Impacts METAR Board
IDs:

KDTW - Detroit Metro/Wayne, MI, US

Updated at: 1300 UTC 27 Feb 2021
Potential Impact None Slight Moderate High
Time 27/01Z 27/02Z 27/03Z 27/04Z 27/05Z 27/06Z 27/07Z 27/08Z 27/09Z 27/10Z 27/11Z 27/12Z 27/13Z
Temp33 31 31 32 33 34 33 33 32 33 34 35 35
Dewpt21 22 23 24 24 24 27 29 30 31 32 33 33
Altim30.10 30.05 30.01 30.00 29.97 29.92 29.90 29.86 29.83 29.85 29.87 29.88 29.93
VIS10 10 9 8 9 8 6 2 1.25 1.5 2 5 5
CIG250 250 -- 110 25 22 18 9 8 7 18 60 12
CoverBKNBKNSCTOVCOVCOVCOVCOVCOVCOVCOVCBKNBKN
FltCatVFRVFRVFRVFRMVFRMVFRMVFRIFRIFRIFRIFRMVFRMVFR
WX-----------RA-RA-FZDZ-DZ BR-FZDZ BRBRBRBR
WDir100100903080801100130220240250260
WSpd6 4 3 4 5 6 3 0 3 4 8 9 6
WGst-- -- -- -- -- -- -- -- -- -- -- -- --
Raw hourly METARs
KDTW 270053Z 10006KT 10SM SCT110 BKN250 01/M06 A3010 RMK AO2 SLP199 T00061061
KDTW 270153Z 10004KT 10SM SCT110 BKN250 M01/M06 A3005 RMK AO2 SLP183 T10061056
KDTW 270253Z 09003KT 9SM FEW110 SCT250 M01/M05 A3001 RMK AO2 SLP170 T10061050 58031
KDTW 270353Z 03004KT 8SM OVC110 00/M04 A3000 RMK AO2 SLP166 T00001044
KDTW 270453Z 08005KT 9SM BKN025 OVC110 01/M04 A2997 RMK AO2 PRESFR SLP155 T00061044 400501072
KDTW 270553Z 08006KT 8SM -RA OVC022 01/M04 A2992 RMK AO2 RAB01E12B48 SLP139 P0000 60000 T00111044 10017 21011 58030
KDTW 270653Z 11003KT 6SM -RA OVC018 01/M03 A2990 RMK AO2 SLP130 P0003 T00061028
KDTW 270804Z 00000KT 2SM -FZDZ BKN009 OVC012 01/M02 A2986 RMK AO2 TWR VIS 4 DZE03FZDZB03 P0000 I1000 T00061017
KDTW 270853Z 13003KT 1 1/4SM -DZ BR OVC008 00/M01 A2983 RMK AO2 TWR VIS 2 DZE03B31FZDZB03E31 SLP105 VIS 1V2 P0001 60007 I1000 I3000 T00001011 58033
KDTW 270953Z 22004KT 1 1/2SM -FZDZ BR BKN007 OVC010 01/M01 A2985 RMK AO2 TWR VIS 2 DZE27FZDZB27 SLP112 P0002 I1000 T00061006
KDTW 271053Z 24008KT 2SM BR FEW008 BKN018 OVC022 01/00 A2987 RMK AO2 SFC VIS 3 DZB07E19RAB19E50FZDZE07 SLP120 P0002 I1000 T00110000
KDTW 271153Z 25009KT 5SM BR SCT035 BKN060 02/01 A2988 RMK AO2 SLP122 60011 70011 I6000 T00170006 10022 20000 51017
KDTW 271253Z 26006KT 5SM BR BKN012 BKN045 02/01 A2993 RMK AO2 SLP142 T00170006



Page loaded:  13:36 UTC  |   05:36 AM Pacific  |   06:36 AM Mountain  |   07:36 AM Central  |   08:36 AM Eastern

 

ADVISORIES

FORECASTS

FORECASTS

OBSERVATIONS

USER TOOLS

ABOUT US